sensor_id;sensor_type;location;lat;lon;timestamp;temperature;humidity
49132;DHT22;35149;51.196;6.204;2024-01-30T00:01:34;8.30;73.70
49132;DHT22;35149;51.196;6.204;2024-01-30T00:04:04;8.30;73.70
49132;DHT22;35149;51.196;6.204;2024-01-30T00:06:31;8.30;73.70
49132;DHT22;35149;51.196;6.204;2024-01-30T00:08:59;8.30;73.90
49132;DHT22;35149;51.196;6.204;2024-01-30T00:11:30;8.30;74.00
49132;DHT22;35149;51.196;6.204;2024-01-30T00:13:57;8.30;74.00
49132;DHT22;35149;51.196;6.204;2024-01-30T00:16:33;8.30;74.20
49132;DHT22;35149;51.196;6.204;2024-01-30T00:19:00;8.30;74.30
49132;DHT22;35149;51.196;6.204;2024-01-30T00:21:28;8.30;74.50
49132;DHT22;35149;51.196;6.204;2024-01-30T00:23:58;8.30;74.70
49132;DHT22;35149;51.196;6.204;2024-01-30T00:26:26;8.30;74.80
49132;DHT22;35149;51.196;6.204;2024-01-30T00:28:55;8.30;74.80
49132;DHT22;35149;51.196;6.204;2024-01-30T00:31:23;8.30;74.90
49132;DHT22;35149;51.196;6.204;2024-01-30T00:33:55;8.30;74.90
49132;DHT22;35149;51.196;6.204;2024-01-30T00:36:22;8.30;74.70
49132;DHT22;35149;51.196;6.204;2024-01-30T00:38:48;8.30;74.60
49132;DHT22;35149;51.196;6.204;2024-01-30T00:41:17;8.30;74.60
49132;DHT22;35149;51.196;6.204;2024-01-30T00:43:45;8.30;74.60
49132;DHT22;35149;51.196;6.204;2024-01-30T00:46:12;8.30;74.60
49132;DHT22;35149;51.196;6.204;2024-01-30T00:48:41;8.30;74.60
49132;DHT22;35149;51.196;6.204;2024-01-30T00:51:10;8.30;74.40
49132;DHT22;35149;51.196;6.204;2024-01-30T00:53:38;8.30;74.40
49132;DHT22;35149;51.196;6.204;2024-01-30T00:56:05;8.20;74.10
49132;DHT22;35149;51.196;6.204;2024-01-30T00:58:35;8.20;74.20
49132;DHT22;35149;51.196;6.204;2024-01-30T01:01:10;8.20;74.20
49132;DHT22;35149;51.196;6.204;2024-01-30T01:03:45;8.10;74.10
49132;DHT22;35149;51.196;6.204;2024-01-30T01:06:20;8.10;74.10
49132;DHT22;35149;51.196;6.204;2024-01-30T01:08:49;8.10;74.20
49132;DHT22;35149;51.196;6.204;2024-01-30T01:11:16;8.10;74.20
49132;DHT22;35149;51.196;6.204;2024-01-30T01:13:42;8.10;74.10
49132;DHT22;35149;51.196;6.204;2024-01-30T01:16:09;8.10;74.10
49132;DHT22;35149;51.196;6.204;2024-01-30T01:18:36;8.00;74.20
49132;DHT22;35149;51.196;6.204;2024-01-30T01:21:05;8.00;74.40
49132;DHT22;35149;51.196;6.204;2024-01-30T01:23:32;8.00;74.50
49132;DHT22;35149;51.196;6.204;2024-01-30T01:25:59;8.00;74.70
49132;DHT22;35149;51.196;6.204;2024-01-30T01:28:27;8.00;74.80
49132;DHT22;35149;51.196;6.204;2024-01-30T01:30:56;8.00;74.90
49132;DHT22;35149;51.196;6.204;2024-01-30T01:33:28;8.00;74.90
49132;DHT22;35149;51.196;6.204;2024-01-30T01:35:58;8.00;74.90
49132;DHT22;35149;51.196;6.204;2024-01-30T01:38:24;8.00;74.90
49132;DHT22;35149;51.196;6.204;2024-01-30T01:40:55;8.00;74.80
49132;DHT22;35149;51.196;6.204;2024-01-30T01:43:25;8.00;74.90
49132;DHT22;35149;51.196;6.204;2024-01-30T01:45:53;7.90;74.80
49132;DHT22;35149;51.196;6.204;2024-01-30T01:48:22;8.00;74.90
49132;DHT22;35149;51.196;6.204;2024-01-30T01:50:54;7.90;74.80
49132;DHT22;35149;51.196;6.204;2024-01-30T01:53:32;7.90;74.80
49132;DHT22;35149;51.196;6.204;2024-01-30T01:56:01;8.00;75.10
49132;DHT22;35149;51.196;6.204;2024-01-30T01:58:28;8.00;75.00
49132;DHT22;35149;51.196;6.204;2024-01-30T02:01:02;7.90;74.90
49132;DHT22;35149;51.196;6.204;2024-01-30T02:03:34;7.90;75.20
49132;DHT22;35149;51.196;6.204;2024-01-30T02:06:04;7.90;75.30
49132;DHT22;35149;51.196;6.204;2024-01-30T02:08:30;7.90;75.40
49132;DHT22;35149;51.196;6.204;2024-01-30T02:11:01;8.00;75.40
49132;DHT22;35149;51.196;6.204;2024-01-30T02:13:30;8.00;75.60
49132;DHT22;35149;51.196;6.204;2024-01-30T02:15:59;8.00;75.70
49132;DHT22;35149;51.196;6.204;2024-01-30T02:18:26;8.00;75.90
49132;DHT22;35149;51.196;6.204;2024-01-30T02:20:56;8.00;75.60
49132;DHT22;35149;51.196;6.204;2024-01-30T02:23:30;8.00;75.60
49132;DHT22;35149;51.196;6.204;2024-01-30T02:26:02;8.00;75.50
49132;DHT22;35149;51.196;6.204;2024-01-30T02:28:33;8.00;75.40
49132;DHT22;35149;51.196;6.204;2024-01-30T02:31:00;8.00;75.40
49132;DHT22;35149;51.196;6.204;2024-01-30T02:33:29;8.00;75.40
49132;DHT22;35149;51.196;6.204;2024-01-30T02:35:59;8.00;75.60
49132;DHT22;35149;51.196;6.204;2024-01-30T02:38:26;8.00;76.10
49132;DHT22;35149;51.196;6.204;2024-01-30T02:40:56;8.00;76.10
49132;DHT22;35149;51.196;6.204;2024-01-30T02:43:25;8.00;76.10
49132;DHT22;35149;51.196;6.204;2024-01-30T02:45:55;8.10;76.20
49132;DHT22;35149;51.196;6.204;2024-01-30T02:48:29;8.00;76.20
49132;DHT22;35149;51.196;6.204;2024-01-30T02:50:56;8.10;76.20
49132;DHT22;35149;51.196;6.204;2024-01-30T02:53:27;8.10;76.30
49132;DHT22;35149;51.196;6.204;2024-01-30T02:55:59;8.10;76.30
49132;DHT22;35149;51.196;6.204;2024-01-30T02:58:29;8.10;76.20
49132;DHT22;35149;51.196;6.204;2024-01-30T03:00:56;8.10;76.10
49132;DHT22;35149;51.196;6.204;2024-01-30T03:03:26;8.10;76.10
49132;DHT22;35149;51.196;6.204;2024-01-30T03:05:53;8.10;76.00
49132;DHT22;35149;51.196;6.204;2024-01-30T03:08:20;8.10;76.00
49132;DHT22;35149;51.196;6.204;2024-01-30T03:10:50;8.10;75.80
49132;DHT22;35149;51.196;6.204;2024-01-30T03:13:19;8.10;75.70
49132;DHT22;35149;51.196;6.204;2024-01-30T03:15:49;8.00;75.60
49132;DHT22;35149;51.196;6.204;2024-01-30T03:18:21;8.10;75.40
49132;DHT22;35149;51.196;6.204;2024-01-30T03:20:53;8.00;75.30
49132;DHT22;35149;51.196;6.204;2024-01-30T03:23:20;8.00;75.20
49132;DHT22;35149;51.196;6.204;2024-01-30T03:25:47;8.00;75.20
49132;DHT22;35149;51.196;6.204;2024-01-30T03:28:13;8.00;75.10
49132;DHT22;35149;51.196;6.204;2024-01-30T03:30:40;7.90;75.00
49132;DHT22;35149;51.196;6.204;2024-01-30T03:33:10;7.90;75.00
49132;DHT22;35149;51.196;6.204;2024-01-30T03:35:37;7.90;75.00
49132;DHT22;35149;51.196;6.204;2024-01-30T03:38:05;7.90;75.30
49132;DHT22;35149;51.196;6.204;2024-01-30T03:40:33;7.90;75.50
49132;DHT22;35149;51.196;6.204;2024-01-30T03:43:02;7.80;75.50
49132;DHT22;35149;51.196;6.204;2024-01-30T03:45:32;7.80;75.60
49132;DHT22;35149;51.196;6.204;2024-01-30T03:48:00;7.80;75.60
49132;DHT22;35149;51.196;6.204;2024-01-30T03:50:26;7.80;75.70
49132;DHT22;35149;51.196;6.204;2024-01-30T03:52:54;7.80;75.70
49132;DHT22;35149;51.196;6.204;2024-01-30T03:55:23;7.80;75.80
49132;DHT22;35149;51.196;6.204;2024-01-30T03:57:55;7.80;75.80
49132;DHT22;35149;51.196;6.204;2024-01-30T04:00:22;7.80;75.80
49132;DHT22;35149;51.196;6.204;2024-01-30T04:02:51;7.80;75.70
49132;DHT22;35149;51.196;6.204;2024-01-30T04:05:18;7.80;75.70
49132;DHT22;35149;51.196;6.204;2024-01-30T04:07:47;7.80;75.70
49132;DHT22;35149;51.196;6.204;2024-01-30T04:10:14;7.70;75.50
49132;DHT22;35149;51.196;6.204;2024-01-30T04:12:51;7.80;75.50
49132;DHT22;35149;51.196;6.204;2024-01-30T04:15:21;7.70;75.40
49132;DHT22;35149;51.196;6.204;2024-01-30T04:17:47;7.70;75.30
49132;DHT22;35149;51.196;6.204;2024-01-30T04:20:17;7.70;75.20
49132;DHT22;35149;51.196;6.204;2024-01-30T04:22:47;7.70;75.20
49132;DHT22;35149;51.196;6.204;2024-01-30T04:25:17;7.70;75.30
49132;DHT22;35149;51.196;6.204;2024-01-30T04:27:44;7.70;75.40
49132;DHT22;35149;51.196;6.204;2024-01-30T04:30:16;7.70;75.60
49132;DHT22;35149;51.196;6.204;2024-01-30T04:32:48;7.70;76.50
49132;DHT22;35149;51.196;6.204;2024-01-30T04:35:14;7.70;75.90
49132;DHT22;35149;51.196;6.204;2024-01-30T04:37:42;7.70;76.10
49132;DHT22;35149;51.196;6.204;2024-01-30T04:40:13;7.70;76.20
49132;DHT22;35149;51.196;6.204;2024-01-30T04:42:49;7.70;76.20
49132;DHT22;35149;51.196;6.204;2024-01-30T04:45:15;7.70;76.40
49132;DHT22;35149;51.196;6.204;2024-01-30T04:47:48;7.70;76.30
49132;DHT22;35149;51.196;6.204;2024-01-30T04:50:16;7.70;76.70
49132;DHT22;35149;51.196;6.204;2024-01-30T04:52:45;7.70;75.80
49132;DHT22;35149;51.196;6.204;2024-01-30T04:55:15;7.70;75.70
49132;DHT22;35149;51.196;6.204;2024-01-30T04:57:46;7.70;75.80
49132;DHT22;35149;51.196;6.204;2024-01-30T05:00:15;7.70;75.80
49132;DHT22;35149;51.196;6.204;2024-01-30T05:02:46;7.70;75.90
49132;DHT22;35149;51.196;6.204;2024-01-30T05:05:13;7.70;76.00
49132;DHT22;35149;51.196;6.204;2024-01-30T05:07:41;7.70;75.90
49132;DHT22;35149;51.196;6.204;2024-01-30T05:10:10;7.70;76.40
49132;DHT22;35149;51.196;6.204;2024-01-30T05:12:39;7.70;75.70
49132;DHT22;35149;51.196;6.204;2024-01-30T05:15:09;7.70;75.60
49132;DHT22;35149;51.196;6.204;2024-01-30T05:17:36;7.70;75.50
49132;DHT22;35149;51.196;6.204;2024-01-30T05:20:09;7.70;75.60
49132;DHT22;35149;51.196;6.204;2024-01-30T05:22:37;7.70;75.60
49132;DHT22;35149;51.196;6.204;2024-01-30T05:25:05;7.70;75.50
49132;DHT22;35149;51.196;6.204;2024-01-30T05:27:37;7.70;75.50
49132;DHT22;35149;51.196;6.204;2024-01-30T05:30:07;7.70;75.40
49132;DHT22;35149;51.196;6.204;2024-01-30T05:32:34;7.70;75.40
49132;DHT22;35149;51.196;6.204;2024-01-30T05:35:01;7.70;75.30
49132;DHT22;35149;51.196;6.204;2024-01-30T05:37:27;7.70;75.30
49132;DHT22;35149;51.196;6.204;2024-01-30T05:39:54;7.80;75.40
49132;DHT22;35149;51.196;6.204;2024-01-30T05:42:21;7.70;75.40
49132;DHT22;35149;51.196;6.204;2024-01-30T05:44:50;7.80;75.50
49132;DHT22;35149;51.196;6.204;2024-01-30T05:47:17;7.80;75.50
49132;DHT22;35149;51.196;6.204;2024-01-30T05:49:46;7.80;75.60
49132;DHT22;35149;51.196;6.204;2024-01-30T05:52:13;7.80;75.80
49132;DHT22;35149;51.196;6.204;2024-01-30T05:54:41;7.90;76.00
49132;DHT22;35149;51.196;6.204;2024-01-30T05:57:08;7.90;76.10
49132;DHT22;35149;51.196;6.204;2024-01-30T05:59:35;7.90;76.10
49132;DHT22;35149;51.196;6.204;2024-01-30T06:02:06;7.90;76.10
49132;DHT22;35149;51.196;6.204;2024-01-30T06:04:33;8.00;76.10
49132;DHT22;35149;51.196;6.204;2024-01-30T06:07:02;7.90;76.10
49132;DHT22;35149;51.196;6.204;2024-01-30T06:09:29;8.00;76.20
49132;DHT22;35149;51.196;6.204;2024-01-30T06:11:56;8.00;76.10
49132;DHT22;35149;51.196;6.204;2024-01-30T06:14:23;8.00;76.20
49132;DHT22;35149;51.196;6.204;2024-01-30T06:16:50;8.00;76.20
49132;DHT22;35149;51.196;6.204;2024-01-30T06:19:16;8.10;76.10
49132;DHT22;35149;51.196;6.204;2024-01-30T06:21:43;8.00;76.00
49132;DHT22;35149;51.196;6.204;2024-01-30T06:24:10;8.10;75.90
49132;DHT22;35149;51.196;6.204;2024-01-30T06:26:39;8.10;75.80
49132;DHT22;35149;51.196;6.204;2024-01-30T06:29:06;8.10;75.80
49132;DHT22;35149;51.196;6.204;2024-01-30T06:31:41;8.00;75.90
49132;DHT22;35149;51.196;6.204;2024-01-30T06:34:09;8.10;76.20
49132;DHT22;35149;51.196;6.204;2024-01-30T06:36:36;8.10;76.30
49132;DHT22;35149;51.196;6.204;2024-01-30T06:39:03;8.10;76.30
49132;DHT22;35149;51.196;6.204;2024-01-30T06:41:30;8.10;76.40
49132;DHT22;35149;51.196;6.204;2024-01-30T06:43:57;8.10;76.60
49132;DHT22;35149;51.196;6.204;2024-01-30T06:46:23;8.10;76.80
49132;DHT22;35149;51.196;6.204;2024-01-30T06:48:50;8.10;76.80
49132;DHT22;35149;51.196;6.204;2024-01-30T06:51:17;8.20;76.90
49132;DHT22;35149;51.196;6.204;2024-01-30T06:53:44;8.20;76.90
49132;DHT22;35149;51.196;6.204;2024-01-30T06:56:11;8.20;76.90
49132;DHT22;35149;51.196;6.204;2024-01-30T06:58:42;8.30;76.90
49132;DHT22;35149;51.196;6.204;2024-01-30T07:01:08;8.20;76.80
49132;DHT22;35149;51.196;6.204;2024-01-30T07:03:36;8.30;76.80
49132;DHT22;35149;51.196;6.204;2024-01-30T07:06:03;8.30;76.80
49132;DHT22;35149;51.196;6.204;2024-01-30T07:08:29;8.30;76.70
49132;DHT22;35149;51.196;6.204;2024-01-30T07:10:56;8.30;76.60
49132;DHT22;35149;51.196;6.204;2024-01-30T07:13:27;8.40;76.60
49132;DHT22;35149;51.196;6.204;2024-01-30T07:15:54;8.40;76.70
49132;DHT22;35149;51.196;6.204;2024-01-30T07:18:21;8.40;76.90
49132;DHT22;35149;51.196;6.204;2024-01-30T07:20:51;8.40;76.90
49132;DHT22;35149;51.196;6.204;2024-01-30T07:23:17;8.40;76.90
49132;DHT22;35149;51.196;6.204;2024-01-30T07:25:44;8.50;76.90
49132;DHT22;35149;51.196;6.204;2024-01-30T07:28:15;8.50;76.90
49132;DHT22;35149;51.196;6.204;2024-01-30T07:30:45;8.50;76.90
49132;DHT22;35149;51.196;6.204;2024-01-30T07:33:12;8.50;77.00
49132;DHT22;35149;51.196;6.204;2024-01-30T07:35:39;8.60;77.20
49132;DHT22;35149;51.196;6.204;2024-01-30T07:38:06;8.60;77.20
49132;DHT22;35149;51.196;6.204;2024-01-30T07:40:33;8.60;77.30
49132;DHT22;35149;51.196;6.204;2024-01-30T07:43:00;8.70;77.40
49132;DHT22;35149;51.196;6.204;2024-01-30T07:45:27;8.70;77.40
49132;DHT22;35149;51.196;6.204;2024-01-30T07:47:59;8.70;77.40
49132;DHT22;35149;51.196;6.204;2024-01-30T07:50:29;8.70;78.20
49132;DHT22;35149;51.196;6.204;2024-01-30T07:52:56;8.80;77.70
49132;DHT22;35149;51.196;6.204;2024-01-30T07:55:23;8.80;77.80
49132;DHT22;35149;51.196;6.204;2024-01-30T07:57:59;8.80;77.80
49132;DHT22;35149;51.196;6.204;2024-01-30T08:00:26;8.90;77.90
49132;DHT22;35149;51.196;6.204;2024-01-30T08:02:53;8.90;78.00
49132;DHT22;35149;51.196;6.204;2024-01-30T08:05:22;9.00;77.90
49132;DHT22;35149;51.196;6.204;2024-01-30T08:07:50;9.00;77.80
49132;DHT22;35149;51.196;6.204;2024-01-30T08:10:17;9.10;77.80
49132;DHT22;35149;51.196;6.204;2024-01-30T08:12:45;9.10;77.80
49132;DHT22;35149;51.196;6.204;2024-01-30T08:15:12;9.10;77.90
49132;DHT22;35149;51.196;6.204;2024-01-30T08:17:39;9.10;77.80
49132;DHT22;35149;51.196;6.204;2024-01-30T08:20:06;9.20;77.80
49132;DHT22;35149;51.196;6.204;2024-01-30T08:22:37;9.20;77.80
49132;DHT22;35149;51.196;6.204;2024-01-30T08:25:04;9.20;77.70
49132;DHT22;35149;51.196;6.204;2024-01-30T08:27:31;9.30;77.90
49132;DHT22;35149;51.196;6.204;2024-01-30T08:29:58;9.30;77.90
49132;DHT22;35149;51.196;6.204;2024-01-30T08:32:24;9.30;77.90
49132;DHT22;35149;51.196;6.204;2024-01-30T08:34:51;9.30;77.90
49132;DHT22;35149;51.196;6.204;2024-01-30T08:37:18;9.30;78.00
49132;DHT22;35149;51.196;6.204;2024-01-30T08:39:45;9.40;78.00
49132;DHT22;35149;51.196;6.204;2024-01-30T08:42:12;9.40;78.00
49132;DHT22;35149;51.196;6.204;2024-01-30T08:44:40;9.40;78.10
49132;DHT22;35149;51.196;6.204;2024-01-30T08:47:06;9.50;78.20
49132;DHT22;35149;51.196;6.204;2024-01-30T08:49:33;9.50;78.20
49132;DHT22;35149;51.196;6.204;2024-01-30T08:52:00;9.50;78.30
49132;DHT22;35149;51.196;6.204;2024-01-30T08:54:27;9.60;78.40
49132;DHT22;35149;51.196;6.204;2024-01-30T08:56:53;9.60;78.60
49132;DHT22;35149;51.196;6.204;2024-01-30T08:59:21;9.70;78.80
49132;DHT22;35149;51.196;6.204;2024-01-30T09:01:48;9.70;79.00
49132;DHT22;35149;51.196;6.204;2024-01-30T09:04:29;9.80;79.20
49132;DHT22;35149;51.196;6.204;2024-01-30T09:06:56;9.90;79.50
49132;DHT22;35149;51.196;6.204;2024-01-30T09:09:23;10.00;79.70
49132;DHT22;35149;51.196;6.204;2024-01-30T09:11:49;10.00;80.10
49132;DHT22;35149;51.196;6.204;2024-01-30T09:14:16;10.10;80.40
49132;DHT22;35149;51.196;6.204;2024-01-30T09:16:43;10.30;80.80
49132;DHT22;35149;51.196;6.204;2024-01-30T09:19:12;10.40;81.00
49132;DHT22;35149;51.196;6.204;2024-01-30T09:21:39;10.60;81.20
49132;DHT22;35149;51.196;6.204;2024-01-30T09:24:06;10.70;81.20
49132;DHT22;35149;51.196;6.204;2024-01-30T09:26:33;10.80;81.20
49132;DHT22;35149;51.196;6.204;2024-01-30T09:28:59;11.00;81.00
49132;DHT22;35149;51.196;6.204;2024-01-30T09:31:26;11.20;80.80
49132;DHT22;35149;51.196;6.204;2024-01-30T09:33:53;11.30;80.60
49132;DHT22;35149;51.196;6.204;2024-01-30T09:36:20;11.50;80.30
49132;DHT22;35149;51.196;6.204;2024-01-30T09:38:47;11.60;79.90
49132;DHT22;35149;51.196;6.204;2024-01-30T09:41:14;11.70;79.50
49132;DHT22;35149;51.196;6.204;2024-01-30T09:43:44;11.80;79.30
49132;DHT22;35149;51.196;6.204;2024-01-30T09:46:19;12.00;79.20
49132;DHT22;35149;51.196;6.204;2024-01-30T09:48:47;12.10;78.70
49132;DHT22;35149;51.196;6.204;2024-01-30T09:51:15;12.20;78.50
49132;DHT22;35149;51.196;6.204;2024-01-30T09:53:43;12.30;78.20
49132;DHT22;35149;51.196;6.204;2024-01-30T09:56:12;12.40;78.00
49132;DHT22;35149;51.196;6.204;2024-01-30T09:58:39;12.50;77.60
49132;DHT22;35149;51.196;6.204;2024-01-30T10:01:08;12.60;77.50
49132;DHT22;35149;51.196;6.204;2024-01-30T10:03:35;12.60;77.10
49132;DHT22;35149;51.196;6.204;2024-01-30T10:06:03;12.70;76.80
49132;DHT22;35149;51.196;6.204;2024-01-30T10:08:32;12.80;76.60
49132;DHT22;35149;51.196;6.204;2024-01-30T10:11:00;12.90;76.50
49132;DHT22;35149;51.196;6.204;2024-01-30T10:13:29;12.90;76.30
49132;DHT22;35149;51.196;6.204;2024-01-30T10:15:56;13.00;76.10
49132;DHT22;35149;51.196;6.204;2024-01-30T10:18:24;13.10;76.00
49132;DHT22;35149;51.196;6.204;2024-01-30T10:20:51;13.10;75.80
49132;DHT22;35149;51.196;6.204;2024-01-30T10:23:18;13.20;75.80
49132;DHT22;35149;51.196;6.204;2024-01-30T10:25:46;13.20;75.60
49132;DHT22;35149;51.196;6.204;2024-01-30T10:28:13;13.30;75.50
49132;DHT22;35149;51.196;6.204;2024-01-30T10:30:40;13.30;75.30
49132;DHT22;35149;51.196;6.204;2024-01-30T10:33:07;13.40;75.30
49132;DHT22;35149;51.196;6.204;2024-01-30T10:35:34;13.40;75.10
49132;DHT22;35149;51.196;6.204;2024-01-30T10:38:01;13.50;75.00
49132;DHT22;35149;51.196;6.204;2024-01-30T10:40:28;13.50;74.80
49132;DHT22;35149;51.196;6.204;2024-01-30T10:43:00;13.60;74.60
49132;DHT22;35149;51.196;6.204;2024-01-30T10:45:31;13.60;74.50
49132;DHT22;35149;51.196;6.204;2024-01-30T10:47:59;13.60;74.40
49132;DHT22;35149;51.196;6.204;2024-01-30T10:50:29;13.60;74.40
49132;DHT22;35149;51.196;6.204;2024-01-30T10:52:58;13.70;74.30
49132;DHT22;35149;51.196;6.204;2024-01-30T10:55:27;13.70;74.40
49132;DHT22;35149;51.196;6.204;2024-01-30T10:57:55;13.80;74.20
49132;DHT22;35149;51.196;6.204;2024-01-30T11:00:22;13.80;74.20
49132;DHT22;35149;51.196;6.204;2024-01-30T11:02:51;13.80;74.10
49132;DHT22;35149;51.196;6.204;2024-01-30T11:05:25;13.80;74.20
49132;DHT22;35149;51.196;6.204;2024-01-30T11:08:10;13.80;74.10
49132;DHT22;35149;51.196;6.204;2024-01-30T11:10:47;13.80;74.00
49132;DHT22;35149;51.196;6.204;2024-01-30T11:13:14;13.90;74.20
49132;DHT22;35149;51.196;6.204;2024-01-30T11:15:41;13.90;74.40
49132;DHT22;35149;51.196;6.204;2024-01-30T11:18:08;14.00;74.50
49132;DHT22;35149;51.196;6.204;2024-01-30T11:20:35;14.00;74.30
49132;DHT22;35149;51.196;6.204;2024-01-30T11:23:11;14.00;74.30
49132;DHT22;35149;51.196;6.204;2024-01-30T11:25:38;14.10;74.20
49132;DHT22;35149;51.196;6.204;2024-01-30T11:28:05;14.10;74.10
49132;DHT22;35149;51.196;6.204;2024-01-30T11:30:32;14.10;74.00
49132;DHT22;35149;51.196;6.204;2024-01-30T11:33:00;14.10;74.00
49132;DHT22;35149;51.196;6.204;2024-01-30T11:35:32;14.10;73.90
49132;DHT22;35149;51.196;6.204;2024-01-30T11:38:00;14.10;73.80
49132;DHT22;35149;51.196;6.204;2024-01-30T11:40:28;14.20;73.90
49132;DHT22;35149;51.196;6.204;2024-01-30T11:42:58;14.20;73.80
49132;DHT22;35149;51.196;6.204;2024-01-30T11:45:27;14.20;73.70
49132;DHT22;35149;51.196;6.204;2024-01-30T11:47:54;14.20;73.70
49132;DHT22;35149;51.196;6.204;2024-01-30T11:50:21;14.30;73.70
49132;DHT22;35149;51.196;6.204;2024-01-30T11:52:48;14.20;73.70
49132;DHT22;35149;51.196;6.204;2024-01-30T11:55:15;14.20;73.70
49132;DHT22;35149;51.196;6.204;2024-01-30T11:57:42;14.30;73.70
49132;DHT22;35149;51.196;6.204;2024-01-30T12:00:29;14.30;73.80
49132;DHT22;35149;51.196;6.204;2024-01-30T12:02:58;14.30;73.70
49132;DHT22;35149;51.196;6.204;2024-01-30T12:05:27;14.30;73.80
49132;DHT22;35149;51.196;6.204;2024-01-30T12:07:55;14.30;73.80
49132;DHT22;35149;51.196;6.204;2024-01-30T12:10:25;14.30;73.70
49132;DHT22;35149;51.196;6.204;2024-01-30T12:12:54;14.30;73.70
49132;DHT22;35149;51.196;6.204;2024-01-30T12:15:22;14.40;73.70
49132;DHT22;35149;51.196;6.204;2024-01-30T12:17:49;14.40;73.70
49132;DHT22;35149;51.196;6.204;2024-01-30T12:20:18;14.40;73.70
49132;DHT22;35149;51.196;6.204;2024-01-30T12:22:47;14.40;73.70
49132;DHT22;35149;51.196;6.204;2024-01-30T12:25:19;14.40;73.70
49132;DHT22;35149;51.196;6.204;2024-01-30T12:27:48;14.50;73.70
49132;DHT22;35149;51.196;6.204;2024-01-30T12:30:19;14.50;73.70
49132;DHT22;35149;51.196;6.204;2024-01-30T12:32:49;14.50;73.60
49132;DHT22;35149;51.196;6.204;2024-01-30T12:35:17;14.50;73.60
49132;DHT22;35149;51.196;6.204;2024-01-30T12:37:45;14.50;73.50
49132;DHT22;35149;51.196;6.204;2024-01-30T12:40:14;14.60;74.20
49132;DHT22;35149;51.196;6.204;2024-01-30T12:42:42;14.60;73.60
49132;DHT22;35149;51.196;6.204;2024-01-30T12:45:09;14.60;73.50
49132;DHT22;35149;51.196;6.204;2024-01-30T12:47:36;14.60;73.40
49132;DHT22;35149;51.196;6.204;2024-01-30T12:50:03;14.70;73.30
49132;DHT22;35149;51.196;6.204;2024-01-30T12:52:30;14.70;73.20
49132;DHT22;35149;51.196;6.204;2024-01-30T12:54:57;14.70;73.20
49132;DHT22;35149;51.196;6.204;2024-01-30T12:57:25;14.70;73.10
49132;DHT22;35149;51.196;6.204;2024-01-30T12:59:52;14.70;73.10
49132;DHT22;35149;51.196;6.204;2024-01-30T13:02:20;14.60;73.00
49132;DHT22;35149;51.196;6.204;2024-01-30T13:04:47;14.60;73.00
49132;DHT22;35149;51.196;6.204;2024-01-30T13:07:16;14.60;73.10
49132;DHT22;35149;51.196;6.204;2024-01-30T13:09:43;14.60;73.70
49132;DHT22;35149;51.196;6.204;2024-01-30T13:12:12;14.60;73.10
49132;DHT22;35149;51.196;6.204;2024-01-30T13:14:39;14.60;73.10
49132;DHT22;35149;51.196;6.204;2024-01-30T13:17:05;14.50;73.10
49132;DHT22;35149;51.196;6.204;2024-01-30T13:19:32;14.50;73.20
49132;DHT22;35149;51.196;6.204;2024-01-30T13:21:59;14.50;73.30
49132;DHT22;35149;51.196;6.204;2024-01-30T13:24:26;14.50;73.40
49132;DHT22;35149;51.196;6.204;2024-01-30T13:26:53;14.60;73.50
49132;DHT22;35149;51.196;6.204;2024-01-30T13:29:20;14.60;73.50
49132;DHT22;35149;51.196;6.204;2024-01-30T13:31:46;14.70;73.40
49132;DHT22;35149;51.196;6.204;2024-01-30T13:34:13;14.70;73.30
49132;DHT22;35149;51.196;6.204;2024-01-30T13:36:42;14.70;73.20
49132;DHT22;35149;51.196;6.204;2024-01-30T13:39:09;14.70;73.20
49132;DHT22;35149;51.196;6.204;2024-01-30T13:41:37;14.80;73.40
49132;DHT22;35149;51.196;6.204;2024-01-30T13:44:04;14.90;73.30
49132;DHT22;35149;51.196;6.204;2024-01-30T13:46:31;15.00;73.00
49132;DHT22;35149;51.196;6.204;2024-01-30T13:48:58;15.00;72.50
49132;DHT22;35149;51.196;6.204;2024-01-30T13:51:27;15.10;72.00
49132;DHT22;35149;51.196;6.204;2024-01-30T13:53:53;15.20;71.90
49132;DHT22;35149;51.196;6.204;2024-01-30T13:56:20;15.10;71.60
49132;DHT22;35149;51.196;6.204;2024-01-30T13:58:51;15.10;71.40
49132;DHT22;35149;51.196;6.204;2024-01-30T14:01:18;15.10;71.20
49132;DHT22;35149;51.196;6.204;2024-01-30T14:03:45;15.10;71.40
49132;DHT22;35149;51.196;6.204;2024-01-30T14:06:12;15.10;71.20
49132;DHT22;35149;51.196;6.204;2024-01-30T14:08:39;15.10;71.10
49132;DHT22;35149;51.196;6.204;2024-01-30T14:11:09;15.10;71.00
49132;DHT22;35149;51.196;6.204;2024-01-30T14:13:36;15.10;70.70
49132;DHT22;35149;51.196;6.204;2024-01-30T14:16:03;15.10;70.40
49132;DHT22;35149;51.196;6.204;2024-01-30T14:18:32;15.10;70.10
49132;DHT22;35149;51.196;6.204;2024-01-30T14:20:59;15.10;70.10
49132;DHT22;35149;51.196;6.204;2024-01-30T14:23:25;15.10;70.30
49132;DHT22;35149;51.196;6.204;2024-01-30T14:25:52;15.00;69.40
49132;DHT22;35149;51.196;6.204;2024-01-30T14:28:19;15.00;69.00
49132;DHT22;35149;51.196;6.204;2024-01-30T14:30:46;15.00;68.90
49132;DHT22;35149;51.196;6.204;2024-01-30T14:33:12;14.90;68.60
49132;DHT22;35149;51.196;6.204;2024-01-30T14:35:39;15.00;68.40
49132;DHT22;35149;51.196;6.204;2024-01-30T14:38:06;14.90;68.00
49132;DHT22;35149;51.196;6.204;2024-01-30T14:40:34;14.90;67.90
49132;DHT22;35149;51.196;6.204;2024-01-30T14:43:01;14.90;67.80
49132;DHT22;35149;51.196;6.204;2024-01-30T14:45:27;14.80;67.50
49132;DHT22;35149;51.196;6.204;2024-01-30T14:47:54;14.80;67.40
49132;DHT22;35149;51.196;6.204;2024-01-30T14:50:22;14.80;67.30
49132;DHT22;35149;51.196;6.204;2024-01-30T14:52:49;14.80;66.50
49132;DHT22;35149;51.196;6.204;2024-01-30T14:55:16;14.80;66.00
49132;DHT22;35149;51.196;6.204;2024-01-30T14:57:43;14.80;65.80
49132;DHT22;35149;51.196;6.204;2024-01-30T15:00:12;14.70;65.60
49132;DHT22;35149;51.196;6.204;2024-01-30T15:02:42;14.70;65.70
49132;DHT22;35149;51.196;6.204;2024-01-30T15:05:09;14.70;64.80
49132;DHT22;35149;51.196;6.204;2024-01-30T15:07:37;14.60;64.40
49132;DHT22;35149;51.196;6.204;2024-01-30T15:10:12;14.60;64.10
49132;DHT22;35149;51.196;6.204;2024-01-30T15:12:40;14.60;63.70
49132;DHT22;35149;51.196;6.204;2024-01-30T15:15:11;14.50;63.70
49132;DHT22;35149;51.196;6.204;2024-01-30T15:17:38;14.50;63.10
49132;DHT22;35149;51.196;6.204;2024-01-30T15:20:08;14.40;63.50
49132;DHT22;35149;51.196;6.204;2024-01-30T15:22:35;14.40;63.00
49132;DHT22;35149;51.196;6.204;2024-01-30T15:25:02;14.30;63.00
49132;DHT22;35149;51.196;6.204;2024-01-30T15:27:32;14.30;62.90
49132;DHT22;35149;51.196;6.204;2024-01-30T15:29:59;14.20;62.80
49132;DHT22;35149;51.196;6.204;2024-01-30T15:32:27;14.20;62.80
49132;DHT22;35149;51.196;6.204;2024-01-30T15:34:53;14.10;62.80
49132;DHT22;35149;51.196;6.204;2024-01-30T15:37:23;14.00;62.70
49132;DHT22;35149;51.196;6.204;2024-01-30T15:39:50;14.00;62.70
49132;DHT22;35149;51.196;6.204;2024-01-30T15:42:19;13.90;62.80
49132;DHT22;35149;51.196;6.204;2024-01-30T15:44:48;13.90;62.80
49132;DHT22;35149;51.196;6.204;2024-01-30T15:47:18;13.90;62.70